createdAt,value
2019-03-18T00:02:19.768Z,93.33
2019-03-18T00:04:52.600Z,93.26
2019-03-18T00:07:23.919Z,93.17
2019-03-18T00:09:55.151Z,93.06
2019-03-18T00:12:26.422Z,92.97
2019-03-18T00:15:01.499Z,93.07
2019-03-18T00:17:30.669Z,93.17
2019-03-18T00:20:01.949Z,93.03
2019-03-18T00:22:33.151Z,92.93
2019-03-18T00:25:06.257Z,92.77
2019-03-18T00:27:37.565Z,92.64
2019-03-18T00:30:21.562Z,92.58
2019-03-18T00:32:53.528Z,92.33
2019-03-18T00:35:24.776Z,92.23
2019-03-18T00:37:55.987Z,92.51
2019-03-18T00:40:27.237Z,93.01
2019-03-18T00:42:58.527Z,93.18
2019-03-18T00:45:29.726Z,93.34
2019-03-18T00:48:01.013Z,93.29
2019-03-18T00:50:32.315Z,93.25
2019-03-18T00:53:03.627Z,93.20
2019-03-18T00:55:34.929Z,93.21
2019-03-18T00:58:06.150Z,93.22
2019-03-18T01:00:37.430Z,93.11
2019-03-18T01:03:08.683Z,92.88
2019-03-18T01:05:40.015Z,92.53
2019-03-18T01:08:12.965Z,92.28
2019-03-18T01:10:44.224Z,91.65
2019-03-18T01:13:15.405Z,91.55
2019-03-18T01:15:46.676Z,91.71
2019-03-18T01:18:17.845Z,91.49
2019-03-18T01:20:49.172Z,91.39
2019-03-18T01:23:20.366Z,91.21
2019-03-18T01:25:52.834Z,91.78
2019-03-18T01:28:24.128Z,92.03
2019-03-18T01:30:55.471Z,91.86
2019-03-18T01:33:27.469Z,91.79
2019-03-18T01:35:58.622Z,91.82
2019-03-18T01:38:29.933Z,91.33
2019-03-18T01:41:01.159Z,91.49
2019-03-18T01:43:32.414Z,91.46
2019-03-18T01:46:03.811Z,91.35
2019-03-18T01:48:35.107Z,91.47
2019-03-18T01:51:06.513Z,91.21
2019-03-18T01:53:37.764Z,91.48
2019-03-18T01:56:08.998Z,91.49
2019-03-18T01:58:40.346Z,91.33
2019-03-18T02:01:11.566Z,91.55
2019-03-18T02:03:42.833Z,91.81
2019-03-18T02:06:14.081Z,91.76
2019-03-18T02:08:45.349Z,91.80
2019-03-18T02:11:16.653Z,91.31
2019-03-18T02:13:47.995Z,90.80
2019-03-18T02:16:19.391Z,91.27
2019-03-18T02:18:50.641Z,91.17
2019-03-18T02:21:21.947Z,91.16
2019-03-18T02:23:53.212Z,91.70
2019-03-18T02:26:24.500Z,91.72
2019-03-18T02:28:55.795Z,91.83
2019-03-18T02:31:27.157Z,91.80
2019-03-18T02:33:58.530Z,92.33
2019-03-18T02:36:29.861Z,92.71
2019-03-18T02:39:02.307Z,92.85
2019-03-18T02:41:34.678Z,92.57
2019-03-18T02:44:05.982Z,92.44
2019-03-18T02:46:37.255Z,92.89
2019-03-18T02:49:09.744Z,92.79
2019-03-18T02:51:41.039Z,92.15
2019-03-18T02:54:12.288Z,91.78
2019-03-18T02:56:43.652Z,91.06
2019-03-18T02:59:14.933Z,91.74
2019-03-18T03:01:46.182Z,91.41
2019-03-18T03:04:17.459Z,91.29
2019-03-18T03:06:48.681Z,91.24
2019-03-18T03:09:20.008Z,90.75
2019-03-18T03:11:51.239Z,90.50
2019-03-18T03:14:22.447Z,90.56
2019-03-18T03:16:53.731Z,90.26
2019-03-18T03:19:24.950Z,90.37
2019-03-18T03:21:56.256Z,91.09
2019-03-18T03:24:27.464Z,91.15
2019-03-18T03:26:58.909Z,91.29
2019-03-18T03:29:32.099Z,91.32
2019-03-18T03:32:03.284Z,91.27
2019-03-18T03:34:34.492Z,91.41
2019-03-18T03:37:05.871Z,91.40
2019-03-18T03:39:37.288Z,91.25
2019-03-18T03:42:08.597Z,91.06
2019-03-18T03:44:39.898Z,91.15
2019-03-18T03:47:11.443Z,90.62
2019-03-18T03:49:42.992Z,91.17
2019-03-18T03:52:14.308Z,91.79
2019-03-18T03:54:45.600Z,91.93
2019-03-18T03:57:16.890Z,91.96
2019-03-18T03:59:48.241Z,92.10
2019-03-18T04:02:19.526Z,91.94
2019-03-18T04:04:50.800Z,91.86
2019-03-18T04:07:22.096Z,92.01
2019-03-18T04:09:53.431Z,92.07
2019-03-18T04:12:24.637Z,91.80
2019-03-18T04:14:55.849Z,91.79
2019-03-18T04:17:27.186Z,91.94
2019-03-18T04:19:58.369Z,92.13
2019-03-18T04:22:29.590Z,92.49
2019-03-18T04:25:00.869Z,92.81
2019-03-18T04:27:32.213Z,93.43
2019-03-18T04:30:06.326Z,93.57
2019-03-18T04:32:37.588Z,93.57
2019-03-18T04:35:08.803Z,93.76
2019-03-18T04:37:40.272Z,93.86
2019-03-18T04:40:12.438Z,93.88
2019-03-18T04:42:43.714Z,94.00
2019-03-18T04:45:14.874Z,94.05
2019-03-18T04:47:46.319Z,94.17
2019-03-18T04:50:17.538Z,93.85
2019-03-18T04:52:49.143Z,94.03
2019-03-18T04:55:20.410Z,94.15
2019-03-18T04:57:51.760Z,94.23
2019-03-18T05:00:22.888Z,94.35
2019-03-18T05:02:54.167Z,94.33
2019-03-18T05:05:26.137Z,94.41
2019-03-18T05:07:57.420Z,94.50
2019-03-18T05:10:28.771Z,94.55
2019-03-18T05:12:59.984Z,94.45
2019-03-18T05:15:31.239Z,94.39
2019-03-18T05:18:02.522Z,94.48
2019-03-18T05:20:33.806Z,94.41
2019-03-18T05:23:05.138Z,94.52
2019-03-18T05:25:36.378Z,94.57
2019-03-18T05:28:07.791Z,94.68
2019-03-18T05:30:39.132Z,94.83
2019-03-18T05:33:10.580Z,94.79
2019-03-18T05:35:41.798Z,94.78
2019-03-18T05:38:13.150Z,94.84
2019-03-18T05:40:44.332Z,94.94
2019-03-18T05:43:15.686Z,94.96
2019-03-18T05:45:46.906Z,94.85
2019-03-18T05:48:19.422Z,94.54
2019-03-18T05:50:50.751Z,94.44
2019-03-18T05:53:22.000Z,94.36
2019-03-18T05:55:53.447Z,94.09
2019-03-18T05:58:24.919Z,94.09
2019-03-18T06:00:56.030Z,93.95
2019-03-18T06:03:27.281Z,93.80
2019-03-18T06:05:58.496Z,93.74
2019-03-18T06:08:29.722Z,93.74
2019-03-18T06:11:01.463Z,93.42
2019-03-18T06:13:32.821Z,93.22
2019-03-18T06:16:04.156Z,93.41
2019-03-18T06:18:35.288Z,93.11
2019-03-18T06:21:06.726Z,92.89
2019-03-18T06:23:37.923Z,92.89
2019-03-18T06:26:10.422Z,92.90
2019-03-18T06:28:43.263Z,92.47
2019-03-18T06:31:14.464Z,92.47
2019-03-18T06:33:45.733Z,92.47
2019-03-18T06:36:17.099Z,92.80
2019-03-18T06:38:48.420Z,92.09
2019-03-18T06:41:19.564Z,91.69
2019-03-18T06:43:52.597Z,92.04
2019-03-18T06:46:23.881Z,90.62
2019-03-18T06:48:55.124Z,90.30
2019-03-18T06:51:27.759Z,90.91
2019-03-18T06:54:01.975Z,90.94
2019-03-18T06:56:33.396Z,90.59
2019-03-18T06:59:04.692Z,89.84
2019-03-18T07:01:35.871Z,88.35
2019-03-18T07:04:07.015Z,89.23
2019-03-18T07:06:41.428Z,89.33
2019-03-18T07:09:12.618Z,89.87
2019-03-18T07:11:44.576Z,88.28
2019-03-18T07:14:15.784Z,87.81
2019-03-18T07:16:49.780Z,87.52
2019-03-18T07:19:22.123Z,86.38
2019-03-18T07:21:53.481Z,85.26
2019-03-18T07:24:24.764Z,84.23
2019-03-18T07:26:57.409Z,82.12
2019-03-18T07:29:28.750Z,82.38
2019-03-18T07:32:03.023Z,83.50
2019-03-18T07:34:34.506Z,79.99
2019-03-18T07:37:05.751Z,80.67
2019-03-18T07:39:36.984Z,80.90
2019-03-18T07:42:08.209Z,79.41
2019-03-18T07:44:39.408Z,75.78
2019-03-18T07:47:10.796Z,76.99
2019-03-18T07:49:42.148Z,73.82
2019-03-18T07:52:13.474Z,73.26
2019-03-18T07:54:44.577Z,73.09
2019-03-18T07:57:19.782Z,71.54
2019-03-18T07:59:51.071Z,68.65
2019-03-18T08:02:22.348Z,69.03
2019-03-18T08:04:53.596Z,67.58
2019-03-18T08:07:24.731Z,66.85
2019-03-18T08:09:55.985Z,65.18
2019-03-18T08:12:28.481Z,63.81
2019-03-18T08:14:59.808Z,62.91
2019-03-18T08:17:31.151Z,62.85
2019-03-18T08:20:03.553Z,61.96
2019-03-18T08:22:34.986Z,58.37
2019-03-18T08:25:07.916Z,57.03
2019-03-18T08:27:40.898Z,54.20
2019-03-18T08:30:17.162Z,51.23
2019-03-18T08:32:48.391Z,49.49
2019-03-18T08:35:19.591Z,47.97
2019-03-18T08:37:50.976Z,47.61
2019-03-18T08:40:22.335Z,49.74
2019-03-18T08:42:53.714Z,44.45
2019-03-18T08:45:25.046Z,42.66
2019-03-18T08:47:56.778Z,41.93
2019-03-18T08:50:28.494Z,42.32
2019-03-18T08:52:59.869Z,41.88
2019-03-18T08:55:32.506Z,41.31
2019-03-18T08:58:03.785Z,40.87
2019-03-18T09:00:34.910Z,38.68
2019-03-18T09:03:06.236Z,39.22
2019-03-18T09:05:37.732Z,39.81
2019-03-18T09:08:08.930Z,36.30
2019-03-18T09:10:40.196Z,38.22
2019-03-18T09:13:11.566Z,39.24
2019-03-18T09:15:44.301Z,40.69
2019-03-18T09:18:15.514Z,37.01
2019-03-18T09:20:46.747Z,35.92
2019-03-18T09:23:17.992Z,38.56
2019-03-18T09:25:49.225Z,38.34
2019-03-18T09:28:22.349Z,36.84
2019-03-18T09:30:53.772Z,35.13
2019-03-18T09:33:25.092Z,34.13
2019-03-18T09:35:57.553Z,34.40
2019-03-18T09:38:28.819Z,33.26
2019-03-18T09:40:59.960Z,31.56
2019-03-18T09:43:31.626Z,32.72
2019-03-18T09:46:02.857Z,33.22
2019-03-18T09:48:34.147Z,33.45
2019-03-18T09:51:05.564Z,33.35
2019-03-18T09:53:37.773Z,33.30
2019-03-18T09:56:09.190Z,33.46
2019-03-18T09:58:40.442Z,33.78
2019-03-18T10:01:11.750Z,30.15
2019-03-18T10:03:42.862Z,27.79
2019-03-18T10:06:14.271Z,28.03
2019-03-18T10:08:45.552Z,28.34
2019-03-18T10:11:18.091Z,28.48
2019-03-18T10:13:49.271Z,27.07
2019-03-18T10:16:20.763Z,26.71
2019-03-18T10:18:51.954Z,25.83
2019-03-18T10:21:23.169Z,27.52
2019-03-18T10:23:54.454Z,26.55
2019-03-18T10:26:25.581Z,26.08
2019-03-18T10:28:56.656Z,25.74
2019-03-18T10:31:27.979Z,25.55
2019-03-18T10:33:59.161Z,26.91
2019-03-18T10:36:30.390Z,27.10
2019-03-18T10:39:01.581Z,26.75
2019-03-18T10:41:34.353Z,27.11
2019-03-18T10:44:05.583Z,25.88
2019-03-18T10:46:36.669Z,25.92
2019-03-18T10:49:07.763Z,25.93
2019-03-18T10:51:38.971Z,26.32
2019-03-18T10:54:11.538Z,27.45
2019-03-18T10:56:42.572Z,26.69
2019-03-18T10:59:13.840Z,26.49
2019-03-18T11:01:45.038Z,26.28
2019-03-18T11:04:16.554Z,26.74
2019-03-18T11:06:47.878Z,26.51
2019-03-18T11:09:19.156Z,25.39
2019-03-18T11:11:50.546Z,24.79
2019-03-18T11:14:21.736Z,24.59
2019-03-18T11:16:53.022Z,26.08
2019-03-18T11:19:24.243Z,26.65
2019-03-18T11:21:55.589Z,26.18
2019-03-18T11:24:27.007Z,27.03
2019-03-18T11:26:59.000Z,26.21
2019-03-18T11:29:30.341Z,27.32
2019-03-18T11:32:01.493Z,25.67
2019-03-18T11:34:33.253Z,27.55
2019-03-18T11:37:04.462Z,27.68
2019-03-18T11:39:35.701Z,27.93
2019-03-18T11:42:06.830Z,27.50
2019-03-18T11:44:38.128Z,26.40
2019-03-18T11:47:09.421Z,26.69
2019-03-18T11:49:40.645Z,26.24
2019-03-18T11:52:11.803Z,26.41
2019-03-18T11:54:43.054Z,26.60
2019-03-18T11:57:14.373Z,26.54
2019-03-18T11:59:46.786Z,25.21
2019-03-18T12:02:27.271Z,25.61
2019-03-18T12:04:51.423Z,25.86
2019-03-18T12:07:23.017Z,26.64
2019-03-18T12:09:54.457Z,28.37
2019-03-18T12:12:25.657Z,25.69
2019-03-18T12:14:56.912Z,25.88
2019-03-18T12:17:30.489Z,26.03
2019-03-18T12:20:01.721Z,23.56
2019-03-18T12:22:35.525Z,23.87
2019-03-18T12:25:08.530Z,24.62
2019-03-18T12:27:39.686Z,24.63
2019-03-18T12:30:21.759Z,25.31
2019-03-18T12:32:53.383Z,25.86
2019-03-18T12:35:24.661Z,25.78
2019-03-18T12:37:55.981Z,25.84
2019-03-18T12:40:27.293Z,26.01
2019-03-18T12:42:58.682Z,25.82
2019-03-18T12:45:29.865Z,25.64
2019-03-18T12:48:01.376Z,25.51
2019-03-18T12:50:49.040Z,25.52
2019-03-18T12:53:05.522Z,25.74
2019-03-18T12:55:37.362Z,25.42
2019-03-18T12:58:08.569Z,24.74
2019-03-18T13:00:41.038Z,25.12
2019-03-18T13:03:13.399Z,24.48
2019-03-18T13:05:44.489Z,24.49
2019-03-18T13:08:15.783Z,24.73
2019-03-18T13:10:48.114Z,25.51
2019-03-18T13:13:19.270Z,25.62
2019-03-18T13:15:51.656Z,25.19
2019-03-18T13:18:22.722Z,25.47
2019-03-18T13:21:07.076Z,25.35
2019-03-18T13:23:27.435Z,25.41
2019-03-18T13:25:58.514Z,24.69
2019-03-18T13:28:29.640Z,24.65
2019-03-18T13:31:00.839Z,25.52
2019-03-18T13:33:32.062Z,25.51
2019-03-18T13:36:03.206Z,25.32
2019-03-18T13:38:34.399Z,25.83
2019-03-18T13:41:05.498Z,25.92
2019-03-18T13:43:37.152Z,26.04
2019-03-18T13:46:08.251Z,25.59
2019-03-18T13:48:39.590Z,25.93
2019-03-18T13:51:20.351Z,25.74
2019-03-18T13:53:43.778Z,26.12
2019-03-18T13:56:15.060Z,26.33
2019-03-18T13:58:47.511Z,26.46
2019-03-18T14:01:20.245Z,26.71
2019-03-18T14:03:51.441Z,26.69
2019-03-18T14:06:22.811Z,26.85
2019-03-18T14:08:54.247Z,26.93
2019-03-18T14:11:27.878Z,27.25
2019-03-18T14:13:59.146Z,26.68
2019-03-18T14:16:31.464Z,27.74
2019-03-18T14:19:02.651Z,27.52
2019-03-18T14:21:33.890Z,28.26
2019-03-18T14:24:05.033Z,28.96
2019-03-18T14:26:36.418Z,29.51
2019-03-18T14:29:07.629Z,28.79
2019-03-18T14:31:38.830Z,29.71
2019-03-18T14:34:09.933Z,30.35
2019-03-18T14:36:41.270Z,30.56
2019-03-18T14:39:12.525Z,30.96
2019-03-18T14:41:44.046Z,30.98
2019-03-18T14:44:15.383Z,31.70
2019-03-18T14:46:47.264Z,32.10
2019-03-18T14:49:18.660Z,32.78
2019-03-18T14:51:49.861Z,32.88
2019-03-18T14:54:21.057Z,32.78
2019-03-18T14:56:52.399Z,33.28
2019-03-18T14:59:23.638Z,34.68
2019-03-18T15:01:54.947Z,35.09
2019-03-18T15:04:26.198Z,35.64
2019-03-18T15:06:57.390Z,36.56
2019-03-18T15:09:28.623Z,37.41
2019-03-18T15:11:59.924Z,38.07
2019-03-18T15:14:31.292Z,38.92
2019-03-18T15:17:02.669Z,40.65
2019-03-18T15:19:33.940Z,41.96
2019-03-18T15:22:06.045Z,42.48
2019-03-18T15:24:37.810Z,43.95
2019-03-18T15:27:09.083Z,44.53
2019-03-18T15:29:41.495Z,45.08
2019-03-18T15:32:12.700Z,45.80
2019-03-18T15:34:43.980Z,46.40
2019-03-18T15:37:15.289Z,47.29
2019-03-18T15:39:47.743Z,47.39
2019-03-18T15:42:19.105Z,47.45
2019-03-18T15:44:50.494Z,47.47
2019-03-18T15:47:23.907Z,47.72
2019-03-18T15:49:55.139Z,47.81
2019-03-18T15:52:27.526Z,47.86
2019-03-18T15:54:58.803Z,48.35
2019-03-18T15:57:30.201Z,48.29
2019-03-18T16:00:01.382Z,48.51
2019-03-18T16:02:32.698Z,48.90
2019-03-18T16:05:04.823Z,49.33
2019-03-18T16:07:36.057Z,49.65
2019-03-18T16:10:18.794Z,49.98
2019-03-18T16:12:51.225Z,50.34
2019-03-18T16:15:23.126Z,50.89
2019-03-18T16:17:54.397Z,51.64
2019-03-18T16:20:27.075Z,51.55
2019-03-18T16:22:58.216Z,51.82
2019-03-18T16:25:29.501Z,52.12
2019-03-18T16:28:00.749Z,52.49
2019-03-18T16:30:32.216Z,52.96
2019-03-18T16:33:03.421Z,53.31
2019-03-18T16:35:34.722Z,53.60
2019-03-18T16:38:06.071Z,53.84
2019-03-18T16:40:37.433Z,54.04
2019-03-18T16:43:08.768Z,54.46
2019-03-18T16:45:40.049Z,55.06
2019-03-18T16:48:12.578Z,55.17
2019-03-18T16:50:43.899Z,55.29
2019-03-18T16:53:20.791Z,55.61
2019-03-18T16:55:53.951Z,55.57
2019-03-18T16:58:25.268Z,56.83
2019-03-18T17:00:56.944Z,56.71
2019-03-18T17:03:28.201Z,56.75
2019-03-18T17:06:01.126Z,57.45
2019-03-18T17:08:32.421Z,57.71
2019-03-18T17:11:04.833Z,57.53
2019-03-18T17:13:37.425Z,58.43
2019-03-18T17:16:13.049Z,57.82
2019-03-18T17:18:44.046Z,57.97
2019-03-18T17:21:16.505Z,58.29
2019-03-18T17:23:47.724Z,58.79
2019-03-18T17:26:19.009Z,58.67
2019-03-18T17:28:50.243Z,58.57
2019-03-18T17:31:21.463Z,58.58
2019-03-18T17:33:54.210Z,58.59
2019-03-18T17:36:25.561Z,58.91
2019-03-18T17:38:56.967Z,58.95
2019-03-18T17:41:28.307Z,58.29
2019-03-18T17:43:59.626Z,58.21
2019-03-18T17:46:31.662Z,58.19
2019-03-18T17:49:03.025Z,58.37
2019-03-18T17:51:37.135Z,58.50
2019-03-18T17:54:08.322Z,58.67
2019-03-18T17:56:39.617Z,59.08
2019-03-18T17:59:12.888Z,59.75
2019-03-18T18:01:44.577Z,59.49
2019-03-18T18:04:15.950Z,60.17
2019-03-18T18:06:47.272Z,60.46
2019-03-18T18:09:18.560Z,60.81
2019-03-18T18:11:51.463Z,61.05
2019-03-18T18:14:22.705Z,61.36
2019-03-18T18:16:54.023Z,61.74
2019-03-18T18:19:38.440Z,62.08
2019-03-18T18:22:11.479Z,62.46
2019-03-18T18:24:42.816Z,62.86
2019-03-18T18:27:14.918Z,63.23
2019-03-18T18:29:50.731Z,63.88
2019-03-18T18:32:22.571Z,64.47
2019-03-18T18:34:53.920Z,64.67
2019-03-18T18:37:25.442Z,65.59
2019-03-18T18:39:59.485Z,65.55
2019-03-18T18:42:31.394Z,65.75
2019-03-18T18:45:03.661Z,65.78
2019-03-18T18:47:36.614Z,66.25
2019-03-18T18:50:09.953Z,66.70
2019-03-18T18:52:41.214Z,67.70
2019-03-18T18:55:14.643Z,68.12
2019-03-18T18:57:45.883Z,68.29
2019-03-18T19:00:21.417Z,68.03
2019-03-18T19:02:52.739Z,68.56
2019-03-18T19:05:25.594Z,68.67
2019-03-18T19:07:57.697Z,68.82
2019-03-18T19:10:30.631Z,68.93
2019-03-18T19:13:01.959Z,69.04
2019-03-18T19:15:40.544Z,69.08
